Time;durP1;ratioP1;P1;durP2;ratioP2;P2;SDS_P1;SDS_P2;PMS_P1;PMS_P2;Temp;Humidity;BMP_temperature;BMP_pressure;BME280_temperature;BME280_humidity;BME280_pressure;Samples;Min_cycle;Max_cycle;Signal;HPM_P1;HPM_P2
2022/08/25 00:00:21;;;;;;;3.83;2.60;;;19.60;99.90;;;;;;5054126;28;20303;-59
2022/08/25 00:02:47;;;;;;;4.47;2.55;;;19.60;99.90;;;;;;5054176;28;20700;-58
2022/08/25 00:05:16;;;;;;;4.57;2.72;;;19.50;99.90;;;;;;5054459;28;20212;-59
2022/08/25 00:07:42;;;;;;;2.72;2.28;;;19.60;99.90;;;;;;5054170;28;20244;-59
2022/08/25 00:10:09;;;;;;;4.03;2.63;;;19.50;99.90;;;;;;5053974;28;20310;-59
2022/08/25 00:12:36;;;;;;;2.60;2.40;;;19.60;99.90;;;;;;5054383;28;20197;-59
2022/08/25 00:15:04;;;;;;;2.83;2.40;;;19.50;99.90;;;;;;5054290;28;20620;-59
2022/08/25 00:17:31;;;;;;;7.05;2.53;;;19.50;99.90;;;;;;5054112;28;20213;-59
2022/08/25 00:19:57;;;;;;;3.28;2.58;;;19.50;99.90;;;;;;5053923;28;20226;-59
2022/08/25 00:22:25;;;;;;;3.85;2.63;;;19.50;99.90;;;;;;5054242;28;20229;-58
2022/08/25 00:24:52;;;;;;;2.95;2.42;;;19.50;99.90;;;;;;5054133;28;20255;-58
2022/08/25 00:27:19;;;;;;;4.82;2.97;;;19.50;99.90;;;;;;5054029;28;20255;-58
2022/08/25 00:29:46;;;;;;;3.13;2.83;;;19.40;99.90;;;;;;5053545;28;20320;-58
2022/08/25 00:32:14;;;;;;;6.60;2.92;;;19.40;99.90;;;;;;5053785;28;20260;-59
2022/08/25 00:34:41;;;;;;;3.78;2.60;;;19.40;99.90;;;;;;5053718;28;20205;-59
2022/08/25 00:37:09;;;;;;;3.45;3.10;;;19.40;99.90;;;;;;5053915;28;20494;-59
2022/08/25 00:39:38;;;;;;;3.63;2.83;;;19.40;99.90;;;;;;5053623;28;20727;-59
2022/08/25 00:42:06;;;;;;;3.30;2.60;;;19.40;99.90;;;;;;5053450;28;20221;-59
2022/08/25 00:44:34;;;;;;;3.13;2.78;;;19.40;99.90;;;;;;5053952;28;20585;-59
2022/08/25 00:47:02;;;;;;;3.72;2.78;;;19.40;99.90;;;;;;5053407;28;20209;-59
2022/08/25 00:49:33;;;;;;;3.85;3.10;;;19.40;99.90;;;;;;5053625;28;20225;-59
2022/08/25 00:52:03;;;;;;;5.20;2.80;;;19.40;99.90;;;;;;5053136;28;20197;-59
2022/08/25 00:54:34;;;;;;;4.15;2.80;;;19.30;99.90;;;;;;5053442;28;20243;-59
2022/08/25 00:57:04;;;;;;;4.00;2.80;;;19.30;99.90;;;;;;5053275;28;20613;-58
2022/08/25 00:59:31;;;;;;;3.35;3.05;;;19.20;99.90;;;;;;5053413;28;20283;-58
2022/08/25 01:01:59;;;;;;;3.45;3.15;;;19.10;99.90;;;;;;5053137;28;20271;-59
2022/08/25 01:04:26;;;;;;;5.68;3.20;;;19.10;99.90;;;;;;5053449;28;20221;-59
2022/08/25 01:06:54;;;;;;;4.10;3.10;;;19.10;99.90;;;;;;5053244;28;20663;-59
2022/08/25 01:09:21;;;;;;;5.07;2.90;;;19.10;99.90;;;;;;5052989;28;20747;-58
2022/08/25 01:11:48;;;;;;;3.17;2.88;;;19.00;99.90;;;;;;5052840;28;20201;-59
2022/08/25 01:14:19;;;;;;;3.40;3.10;;;19.00;99.90;;;;;;5052931;28;20674;-58
2022/08/25 01:16:46;;;;;;;3.20;2.90;;;19.00;99.90;;;;;;5052972;28;20568;-59
2022/08/25 01:19:15;;;;;;;3.22;2.90;;;19.00;99.90;;;;;;5053008;28;20636;-59
2022/08/25 01:21:46;;;;;;;4.72;3.22;;;18.90;99.90;;;;;;5053032;28;20252;-58
2022/08/25 01:24:30;;;;;;;5.10;3.10;;;18.90;99.90;;;;;;5053123;28;20260;-59
2022/08/25 01:26:57;;;;;;;3.75;3.33;;;18.90;99.90;;;;;;5052802;28;20248;-59
2022/08/25 01:29:25;;;;;;;3.40;3.00;;;19.00;99.90;;;;;;5052906;28;20608;-58
2022/08/25 01:31:56;;;;;;;4.07;3.08;;;19.00;99.90;;;;;;5052740;28;20198;-58
2022/08/25 01:34:24;;;;;;;3.60;3.03;;;19.10;99.90;;;;;;5052808;28;20212;-59
2022/08/25 01:36:53;;;;;;;3.42;3.08;;;19.10;99.90;;;;;;5052601;28;20296;-59
2022/08/25 01:39:20;;;;;;;3.17;2.97;;;19.20;99.90;;;;;;5052375;28;20230;-59
2022/08/25 01:42:03;;;;;;;4.65;3.45;;;19.10;99.90;;;;;;5052093;28;20717;-59
2022/08/25 01:44:31;;;;;;;3.20;2.90;;;19.10;99.90;;;;;;5053165;28;20201;-59
2022/08/25 01:46:57;;;;;;;4.25;3.13;;;19.20;99.90;;;;;;5052469;28;20205;-59
2022/08/25 01:49:24;;;;;;;3.60;3.28;;;19.20;99.90;;;;;;5052483;28;20225;-59
2022/08/25 01:51:56;;;;;;;5.00;3.50;;;19.20;99.90;;;;;;5052031;28;20212;-59
2022/08/25 01:54:23;;;;;;;3.60;3.30;;;19.10;99.90;;;;;;5052597;28;20225;-59
2022/08/25 01:56:50;;;;;;;3.63;3.22;;;19.10;99.90;;;;;;5052385;28;20213;-58
2022/08/25 01:59:17;;;;;;;3.33;3.03;;;19.20;99.90;;;;;;5052238;28;20233;-58
2022/08/25 02:01:44;;;;;;;6.15;3.45;;;19.10;99.90;;;;;;5051876;28;20229;-58
2022/08/25 02:04:11;;;;;;;3.83;3.47;;;19.10;99.90;;;;;;5051368;28;20205;-59
2022/08/25 02:06:39;;;;;;;5.25;3.67;;;19.10;99.90;;;;;;5052400;28;20236;-59
2022/08/25 02:09:10;;;;;;;5.45;3.20;;;19.10;99.90;;;;;;5052078;28;20542;-61
2022/08/25 02:11:39;;;;;;;3.80;3.42;;;19.10;99.90;;;;;;5052242;28;20243;-59
2022/08/25 02:14:06;;;;;;;4.28;3.20;;;19.10;99.90;;;;;;5052418;28;20214;-59
2022/08/25 02:16:36;;;;;;;3.88;3.20;;;19.00;99.90;;;;;;5052022;28;20209;-59
2022/08/25 02:19:05;;;;;;;3.80;3.50;;;19.00;99.90;;;;;;5051849;28;20332;-58
2022/08/25 02:21:32;;;;;;;4.65;3.65;;;19.00;99.90;;;;;;5051808;28;20217;-59
2022/08/25 02:24:00;;;;;;;5.43;3.45;;;19.00;99.90;;;;;;5051989;28;20640;-58
2022/08/25 02:26:28;;;;;;;4.53;3.70;;;19.00;99.90;;;;;;5051924;28;20251;-59
2022/08/25 02:28:55;;;;;;;4.68;3.60;;;19.00;99.90;;;;;;5051823;28;20231;-58
2022/08/25 02:31:23;;;;;;;5.35;3.70;;;19.00;99.90;;;;;;5051451;28;20205;-58
2022/08/25 02:33:51;;;;;;;4.30;3.90;;;19.10;99.90;;;;;;5052110;28;20205;-59
2022/08/25 02:36:18;;;;;;;4.75;3.60;;;19.00;99.90;;;;;;5051905;28;20240;-59
2022/08/25 02:38:45;;;;;;;6.00;4.00;;;19.00;99.90;;;;;;5051735;28;20258;-58
2022/08/25 02:41:15;;;;;;;4.55;3.90;;;19.10;99.90;;;;;;5051649;28;20210;-59
2022/08/25 02:43:43;;;;;;;4.97;3.80;;;19.10;99.90;;;;;;5051655;28;20201;-59
2022/08/25 02:46:11;;;;;;;5.75;3.80;;;19.10;99.90;;;;;;5051802;28;20202;-59
2022/08/25 02:48:38;;;;;;;5.80;3.88;;;19.10;99.90;;;;;;5051788;28;20727;-59
2022/08/25 02:51:09;;;;;;;4.72;3.92;;;19.10;99.90;;;;;;5051427;28;20225;-59
2022/08/25 02:53:38;;;;;;;4.45;3.70;;;19.10;99.90;;;;;;5051760;28;20201;-59
2022/08/25 02:56:06;;;;;;;4.72;4.15;;;19.00;99.90;;;;;;5051490;28;20669;-59
2022/08/25 02:58:33;;;;;;;5.88;4.10;;;19.00;99.90;;;;;;5051462;28;20255;-59
2022/08/25 03:01:01;;;;;;;3.83;3.47;;;19.00;99.90;;;;;;5051470;28;20252;-59
2022/08/25 03:03:28;;;;;;;6.28;3.78;;;18.90;99.90;;;;;;5051560;28;20239;-59
2022/08/25 03:05:55;;;;;;;5.28;3.90;;;18.80;99.90;;;;;;5051570;28;20210;-59
2022/08/25 03:08:22;;;;;;;5.45;3.75;;;18.70;99.90;;;;;;5051454;28;20202;-59
2022/08/25 03:10:48;;;;;;;4.55;4.13;;;18.60;99.90;;;;;;5051074;28;20237;-59
2022/08/25 03:13:15;;;;;;;4.30;3.90;;;18.60;99.90;;;;;;5051545;28;20202;-59
2022/08/25 03:15:42;;;;;;;5.10;4.05;;;18.60;99.90;;;;;;5052444;28;20216;-58
2022/08/25 03:18:11;;;;;;;4.40;4.00;;;18.50;99.90;;;;;;5055286;28;20659;-59
2022/08/25 03:20:39;;;;;;;8.48;4.30;;;18.50;99.90;;;;;;5054959;28;20351;-59
2022/08/25 03:23:06;;;;;;;5.80;4.05;;;18.50;99.90;;;;;;5055334;28;20225;-59
2022/08/25 03:28:18;;;;;;;6.13;3.97;;;18.40;99.90;;;;;;5055047;28;20343;-59
2022/08/25 03:30:46;;;;;;;6.45;4.00;;;18.40;99.90;;;;;;5054841;28;20226;-59
2022/08/25 03:33:14;;;;;;;7.68;4.10;;;18.30;99.90;;;;;;5054987;28;20201;-59
2022/08/25 03:35:40;;;;;;;4.70;4.00;;;18.30;99.90;;;;;;5054922;28;20210;-59
2022/08/25 03:38:07;;;;;;;5.40;4.20;;;18.30;99.90;;;;;;5054953;28;20718;-59
2022/08/25 03:40:34;;;;;;;5.45;4.10;;;18.20;99.90;;;;;;5054510;28;20271;-59
2022/08/25 03:43:00;;;;;;;4.57;3.88;;;18.20;99.90;;;;;;5054706;28;20230;-59
2022/08/25 03:45:27;;;;;;;6.15;4.40;;;18.10;99.90;;;;;;5054666;28;20216;-59
2022/08/25 03:47:54;;;;;;;5.32;4.70;;;18.20;99.90;;;;;;5054681;28;20209;-59
2022/08/25 03:50:23;;;;;;;10.73;8.35;;;18.20;99.90;;;;;;5054209;28;20229;-59
2022/08/25 03:52:54;;;;;;;9.23;6.60;;;18.20;99.90;;;;;;5055017;28;20202;-59
2022/08/25 03:55:23;;;;;;;6.07;5.30;;;18.20;99.90;;;;;;5054699;28;20213;-59
2022/08/25 03:57:51;;;;;;;6.03;4.32;;;18.20;99.90;;;;;;5054480;28;20218;-59
2022/08/25 04:00:18;;;;;;;5.90;5.30;;;18.20;99.90;;;;;;5054201;28;20229;-59
2022/08/25 04:02:45;;;;;;;5.90;5.00;;;18.20;99.90;;;;;;5054517;28;20222;-60
2022/08/25 04:05:12;;;;;;;8.70;7.35;;;18.20;99.90;;;;;;5054290;28;20605;-59
2022/08/25 04:07:41;;;;;;;5.20;4.70;;;18.20;99.90;;;;;;5054432;28;20205;-58
2022/08/25 04:10:09;;;;;;;12.48;7.03;;;18.20;99.90;;;;;;5054696;28;20290;-56
2022/08/25 04:12:37;;;;;;;6.40;5.07;;;18.20;99.90;;;;;;5054321;28;20292;-55
2022/08/25 04:15:06;;;;;;;4.97;4.13;;;18.20;99.90;;;;;;5054764;28;20209;-56
2022/08/25 04:17:33;;;;;;;4.97;4.47;;;18.20;99.90;;;;;;5054111;28;20213;-56
2022/08/25 04:20:01;;;;;;;5.45;4.78;;;18.10;99.90;;;;;;5054134;28;20731;-58
2022/08/25 04:22:29;;;;;;;6.68;4.97;;;18.10;99.90;;;;;;5054150;28;20725;-57
2022/08/25 04:24:58;;;;;;;6.38;4.40;;;18.00;99.90;;;;;;5054097;28;20725;-56
2022/08/25 04:27:25;;;;;;;5.78;4.45;;;17.90;99.90;;;;;;5053170;28;20251;-57
2022/08/25 04:29:51;;;;;;;5.80;4.60;;;17.80;99.90;;;;;;5053832;28;20287;-56
2022/08/25 04:32:18;;;;;;;4.97;4.47;;;17.80;99.90;;;;;;5053521;28;20209;-57
2022/08/25 04:34:45;;;;;;;6.40;5.25;;;17.70;99.90;;;;;;5053738;28;20563;-57
2022/08/25 04:37:12;;;;;;;7.68;5.20;;;17.80;99.90;;;;;;5053921;28;20274;-55
2022/08/25 04:39:38;;;;;;;5.63;5.03;;;17.80;99.90;;;;;;5053762;28;20233;-55
2022/08/25 04:42:07;;;;;;;5.47;4.63;;;17.90;99.90;;;;;;5053739;28;20205;-55
2022/08/25 04:44:33;;;;;;;4.80;4.40;;;17.90;99.90;;;;;;5053596;28;20252;-56
2022/08/25 04:47:01;;;;;;;5.18;4.68;;;17.90;99.90;;;;;;5053650;28;20201;-59
2022/08/25 04:49:27;;;;;;;5.13;4.63;;;17.90;99.90;;;;;;5053676;28;20221;-54
2022/08/25 04:51:55;;;;;;;6.45;5.70;;;18.00;99.90;;;;;;5053335;28;20296;-57
2022/08/25 04:54:22;;;;;;;7.80;4.78;;;18.00;99.90;;;;;;5053786;28;20206;-55
2022/08/25 04:56:49;;;;;;;7.80;5.40;;;18.10;99.90;;;;;;5053354;28;20210;-56
2022/08/25 04:59:18;;;;;;;6.65;4.70;;;18.10;99.90;;;;;;5053223;28;20226;-57
2022/08/25 05:01:46;;;;;;;7.00;5.18;;;18.10;99.90;;;;;;5053301;28;20205;-56
2022/08/25 05:04:19;;;;;;;13.00;5.20;;;18.10;99.90;;;;;;5053520;28;20233;-55
2022/08/25 05:06:46;;;;;;;14.82;5.15;;;18.10;99.90;;;;;;5053317;28;20263;-57
2022/08/25 05:09:13;;;;;;;10.90;4.93;;;18.10;99.90;;;;;;5053055;28;20271;-56
2022/08/25 05:11:39;;;;;;;11.40;5.35;;;18.20;99.90;;;;;;5052747;28;20209;-57
2022/08/25 05:14:10;;;;;;;9.40;5.05;;;18.10;99.90;;;;;;5053747;28;20201;-56
2022/08/25 05:16:39;;;;;;;8.82;5.00;;;18.10;99.90;;;;;;5053140;28;20897;-56
2022/08/25 05:19:06;;;;;;;12.48;5.30;;;18.10;99.90;;;;;;5053543;28;20299;-57
2022/08/25 05:21:33;;;;;;;8.77;5.28;;;18.10;99.90;;;;;;5052911;28;20217;-56
2022/08/25 05:24:01;;;;;;;6.75;4.93;;;18.10;99.90;;;;;;5052675;28;20228;-56
2022/08/25 05:26:31;;;;;;;7.93;5.15;;;18.10;99.90;;;;;;5052734;28;20213;-56
2022/08/25 05:28:59;;;;;;;6.55;5.00;;;18.20;99.90;;;;;;5052931;28;20255;-57
2022/08/25 05:31:26;;;;;;;7.10;5.03;;;18.20;99.90;;;;;;5052778;28;20214;-56
2022/08/25 05:33:55;;;;;;;7.22;5.18;;;18.30;99.90;;;;;;5052547;28;20209;-57
2022/08/25 05:36:23;;;;;;;8.02;5.28;;;18.40;99.90;;;;;;5052650;28;20206;-56
2022/08/25 05:38:51;;;;;;;6.30;4.95;;;18.40;99.90;;;;;;5052661;28;20206;-56
2022/08/25 05:41:20;;;;;;;6.82;5.00;;;18.50;99.90;;;;;;5052620;28;20206;-56
2022/08/25 05:43:49;;;;;;;7.63;5.10;;;18.70;99.90;;;;;;5052625;28;20319;-55
2022/08/25 05:46:18;;;;;;;6.03;4.63;;;19.40;99.90;;;;;;5052610;28;20206;-56
2022/08/25 05:48:45;;;;;;;6.15;4.45;;;21.00;99.90;;;;;;5052405;28;20210;-56
2022/08/25 05:51:14;;;;;;;5.47;4.60;;;22.80;99.90;;;;;;5052170;28;20205;-57
2022/08/25 05:53:43;;;;;;;4.43;3.88;;;24.40;99.90;;;;;;5052603;28;20267;-56
2022/08/25 05:56:10;;;;;;;7.63;4.30;;;25.70;99.90;;;;;;5052380;28;20216;-55
2022/08/25 05:58:37;;;;;;;7.18;4.10;;;26.70;99.90;;;;;;5052514;28;20206;-56
2022/08/25 06:03:45;;;;;;;7.82;4.00;;;28.20;99.90;;;;;;5051791;28;20318;-56
2022/08/25 06:06:14;;;;;;;8.52;4.18;;;29.10;99.90;;;;;;5052128;28;20575;-56
2022/08/25 06:08:41;;;;;;;12.77;4.15;;;29.80;98.90;;;;;;5052333;28;20662;-56
2022/08/25 06:11:08;;;;;;;10.90;4.65;;;30.70;96.80;;;;;;5051961;28;20267;-56
2022/08/25 06:13:35;;;;;;;8.93;4.30;;;31.50;93.40;;;;;;5052199;28;20580;-56
2022/08/25 06:16:02;;;;;;;10.77;4.22;;;32.30;91.90;;;;;;5051992;28;20629;-55
2022/08/25 06:18:29;;;;;;;6.47;4.00;;;32.80;89.20;;;;;;5051830;28;20335;-55
2022/08/25 06:20:56;;;;;;;6.00;4.38;;;33.40;85.50;;;;;;5051772;28;20229;-55
2022/08/25 06:23:24;;;;;;;4.60;4.00;;;33.90;82.60;;;;;;5052430;28;20287;-55
2022/08/25 06:25:51;;;;;;;6.40;4.00;;;34.40;79.40;;;;;;5051912;28;20209;-55
2022/08/25 06:28:19;;;;;;;5.03;4.25;;;34.90;77.80;;;;;;5052022;28;20231;-56
2022/08/25 06:30:45;;;;;;;4.97;4.20;;;35.40;74.70;;;;;;5051402;28;20343;-56
2022/08/25 06:33:12;;;;;;;4.35;3.80;;;35.70;71.80;;;;;;5051962;28;20551;-56
2022/08/25 06:35:41;;;;;;;8.95;4.35;;;36.20;70.50;;;;;;5051775;28;20213;-57
2022/08/25 06:38:09;;;;;;;4.88;3.85;;;36.60;68.20;;;;;;5051792;28;20233;-55
2022/08/25 06:40:37;;;;;;;4.78;3.97;;;37.00;65.80;;;;;;5051440;28;20304;-56
2022/08/25 06:43:07;;;;;;;6.72;4.10;;;37.20;65.50;;;;;;5051686;28;20692;-56
2022/08/25 06:45:34;;;;;;;5.95;3.78;;;37.70;62.80;;;;;;5051566;28;20248;-56
2022/08/25 06:48:01;;;;;;;7.45;3.67;;;38.20;61.40;;;;;;5051714;28;20209;-56
2022/08/25 06:50:28;;;;;;;6.40;4.05;;;38.60;60.10;;;;;;5051985;28;20229;-56
2022/08/25 06:52:54;;;;;;;4.50;4.05;;;39.30;58.60;;;;;;5055813;28;20210;-56
2022/08/25 06:55:21;;;;;;;7.18;3.40;;;40.10;56.80;;;;;;5055682;28;20225;-57
2022/08/25 06:57:52;;;;;;;4.28;3.70;;;40.50;55.60;;;;;;5055456;28;20213;-56
2022/08/25 07:00:19;;;;;;;4.63;3.60;;;41.10;54.50;;;;;;5055432;28;20282;-55
2022/08/25 07:02:46;;;;;;;7.03;3.72;;;41.30;52.40;;;;;;5055458;28;20251;-57
2022/08/25 07:05:13;;;;;;;7.57;3.95;;;41.40;52.10;;;;;;5055602;28;20229;-57
2022/08/25 07:07:39;;;;;;;5.65;3.72;;;41.70;51.40;;;;;;5055518;28;20212;-57
2022/08/25 07:10:07;;;;;;;5.45;3.55;;;41.90;50.60;;;;;;5055232;28;20240;-58
2022/08/25 07:12:34;;;;;;;5.75;3.67;;;41.90;50.30;;;;;;5055021;28;20209;-56
2022/08/25 07:15:02;;;;;;;7.30;6.55;;;42.10;49.50;;;;;;5055162;28;20258;-55
2022/08/25 07:17:29;;;;;;;3.92;3.35;;;42.10;49.20;;;;;;5055514;28;20688;-56
2022/08/25 07:19:56;;;;;;;4.43;3.80;;;42.40;48.60;;;;;;5055410;28;20302;-58
2022/08/25 07:22:22;;;;;;;3.95;3.20;;;42.50;48.00;;;;;;5054918;28;20612;-58
2022/08/25 07:24:49;;;;;;;4.30;3.30;;;42.20;48.30;;;;;;5054930;28;20233;-57
2022/08/25 07:27:16;;;;;;;4.93;3.40;;;41.80;48.60;;;;;;5055237;28;20205;-56
2022/08/25 07:29:43;;;;;;;4.18;3.58;;;41.30;49.00;;;;;;5055250;28;20228;-55
2022/08/25 07:32:11;;;;;;;5.82;3.53;;;41.00;49.60;;;;;;5055003;28;20261;-57
2022/08/25 07:37:23;;;;;;;3.45;3.15;;;40.80;49.60;;;;;;5054981;28;20205;-57
2022/08/25 07:39:49;;;;;;;5.82;3.17;;;40.90;49.70;;;;;;5054638;28;20229;-56
2022/08/25 07:42:16;;;;;;;3.80;3.30;;;40.60;50.00;;;;;;5054696;28;20252;-56
2022/08/25 07:44:43;;;;;;;4.15;3.50;;;40.20;50.50;;;;;;5054929;28;20229;-56
2022/08/25 07:47:11;;;;;;;4.82;3.53;;;40.00;50.50;;;;;;5054745;28;20232;-57
2022/08/25 07:49:38;;;;;;;4.20;3.80;;;39.90;50.90;;;;;;5054569;28;20232;-56
2022/08/25 07:52:04;;;;;;;3.50;3.20;;;39.80;50.80;;;;;;5054866;28;20205;-57
2022/08/25 07:54:31;;;;;;;4.70;3.40;;;40.10;50.60;;;;;;5054710;28;20205;-56
2022/08/25 07:56:58;;;;;;;5.70;3.28;;;40.40;49.70;;;;;;5054726;28;20201;-56
2022/08/25 07:59:24;;;;;;;3.63;3.25;;;40.50;49.60;;;;;;5054512;28;20261;-57
2022/08/25 08:01:51;;;;;;;3.90;3.30;;;40.10;49.90;;;;;;5053123;28;20251;-57
2022/08/25 08:04:19;;;;;;;3.60;3.30;;;39.40;50.80;;;;;;5053857;28;20316;-57
2022/08/25 08:06:46;;;;;;;3.63;2.92;;;39.20;51.40;;;;;;5054198;28;20209;-56
2022/08/25 08:09:13;;;;;;;4.15;3.42;;;39.00;51.60;;;;;;5054241;28;20241;-56
2022/08/25 08:11:43;;;;;;;3.80;3.28;;;38.80;52.20;;;;;;5053875;28;20712;-56
2022/08/25 08:14:10;;;;;;;5.80;3.50;;;39.10;51.40;;;;;;5054279;28;20220;-56
2022/08/25 08:16:38;;;;;;;3.50;3.20;;;39.40;51.30;;;;;;5054233;28;20209;-56
2022/08/25 08:19:06;;;;;;;6.63;3.80;;;39.70;50.70;;;;;;5054035;28;20221;-57
2022/08/25 08:21:36;;;;;;;3.97;3.67;;;39.20;51.20;;;;;;5053744;28;20209;-56
2022/08/25 08:24:04;;;;;;;5.90;3.63;;;38.10;52.90;;;;;;5054034;28;20333;-56
2022/08/25 08:26:31;;;;;;;5.72;4.15;;;36.60;55.00;;;;;;5053758;28;20214;-56
2022/08/25 08:28:58;;;;;;;4.03;3.72;;;34.90;58.10;;;;;;5053781;28;20206;-56
2022/08/25 08:31:25;;;;;;;5.97;3.80;;;33.60;61.10;;;;;;5053720;28;20263;-55
2022/08/25 08:33:54;;;;;;;4.15;3.75;;;32.10;64.90;;;;;;5053844;28;20213;-55
2022/08/25 08:36:22;;;;;;;5.00;3.78;;;30.80;68.40;;;;;;5054085;28;20210;-56
2022/08/25 08:38:50;;;;;;;4.90;4.15;;;30.20;71.10;;;;;;5053800;28;20206;-55
2022/08/25 08:44:46;;;;;;;5.00;3.72;;;28.90;76.60;;;;;;5053629;28;20278;-55
2022/08/25 08:47:22;;;;;;;5.88;4.28;;;28.40;79.00;;;;;;5053728;28;20213;-55
2022/08/25 08:49:59;;;;;;;6.65;4.50;;;28.30;80.20;;;;;;5053564;28;20228;-56
2022/08/25 08:52:37;;;;;;;4.88;4.15;;;28.10;82.10;;;;;;5053493;28;20209;-55
2022/08/25 08:55:11;;;;;;;4.35;3.95;;;27.90;83.60;;;;;;5053888;28;20206;-56
2022/08/25 08:57:46;;;;;;;4.85;3.90;;;27.90;84.60;;;;;;5053471;28;20594;-55
2022/08/25 09:00:14;;;;;;;4.63;4.22;;;27.80;86.10;;;;;;5053372;28;20287;-55
2022/08/25 09:02:48;;;;;;;5.13;4.20;;;27.60;86.60;;;;;;5053282;28;20260;-55
2022/08/25 09:05:18;;;;;;;4.10;3.70;;;27.40;87.00;;;;;;5053396;28;20221;-57
2022/08/25 09:07:48;;;;;;;5.75;3.83;;;27.30;88.70;;;;;;5053310;28;20263;-56
2022/08/25 09:10:18;;;;;;;3.90;3.55;;;27.10;90.00;;;;;;5053011;28;20725;-57
2022/08/25 09:12:55;;;;;;;5.18;4.28;;;27.10;90.40;;;;;;5052942;28;20205;-57
2022/08/25 09:16:53;;;;;;;4.57;4.18;;;27.20;90.90;;;;;;5052920;28;20225;-56
2022/08/25 09:18:26;;;;;;;3.95;3.40;;;27.40;90.00;;;;;;5052708;28;20209;-55
2022/08/25 09:21:05;;;;;;;6.07;3.53;;;27.50;89.70;;;;;;5052606;28;20233;-57
2022/08/25 09:23:42;;;;;;;4.38;3.90;;;27.50;90.00;;;;;;5052830;28;20228;-55
2022/08/25 09:26:24;;;;;;;5.18;3.60;;;27.50;90.10;;;;;;5052773;28;20202;-57
2022/08/25 09:28:54;;;;;;;4.00;3.60;;;27.50;90.20;;;;;;5052825;28;20526;-56
2022/08/25 09:31:24;;;;;;;5.05;3.75;;;27.60;90.10;;;;;;5052818;28;20647;-57
2022/08/25 09:33:55;;;;;;;5.43;3.78;;;27.70;90.20;;;;;;5052553;28;20730;-56
2022/08/25 09:36:23;;;;;;;4.15;3.58;;;27.80;90.20;;;;;;5052738;28;20288;-56
2022/08/25 09:38:49;;;;;;;4.93;3.90;;;27.90;89.90;;;;;;5052632;28;20212;-57
2022/08/25 09:41:34;;;;;;;5.40;4.07;;;27.90;89.20;;;;;;5052549;28;20263;-56
2022/08/25 09:44:01;;;;;;;4.43;4.03;;;28.10;89.00;;;;;;5052574;28;20221;-55
2022/08/25 09:46:29;;;;;;;4.32;3.92;;;28.30;89.30;;;;;;5052466;28;20205;-56
2022/08/25 09:48:58;;;;;;;7.00;4.32;;;28.20;89.20;;;;;;5052075;28;20209;-56
2022/08/25 09:51:27;;;;;;;5.43;3.78;;;28.20;89.30;;;;;;5052470;28;20251;-56
2022/08/25 09:53:57;;;;;;;4.22;3.70;;;28.30;89.10;;;;;;5052548;28;20201;-56
2022/08/25 09:56:28;;;;;;;3.75;3.42;;;28.50;88.90;;;;;;5052367;28;20213;-57
2022/08/25 09:59:16;;;;;;;4.78;3.42;;;28.60;86.60;;;;;;5052248;28;20354;-56
2022/08/25 10:01:49;;;;;;;4.88;3.75;;;28.60;86.90;;;;;;5052149;28;20697;-55
2022/08/25 10:04:26;;;;;;;4.90;3.70;;;28.70;87.40;;;;;;5052222;28;20308;-56
2022/08/25 10:06:52;;;;;;;6.13;3.35;;;28.80;87.00;;;;;;5052145;28;20216;-56
2022/08/25 10:09:28;;;;;;;4.40;3.72;;;28.80;86.50;;;;;;5052497;28;20245;-55
2022/08/25 10:11:59;;;;;;;3.85;3.50;;;29.00;85.60;;;;;;5051777;28;20215;-55
2022/08/25 10:14:33;;;;;;;4.97;3.50;;;29.20;84.90;;;;;;5052045;28;20201;-57
2022/08/25 10:17:14;;;;;;;3.70;3.35;;;29.40;83.70;;;;;;5052145;28;20596;-55
2022/08/25 10:19:41;;;;;;;4.18;3.13;;;29.50;81.80;;;;;;5052129;28;20312;-54
2022/08/25 10:22:10;;;;;;;4.60;3.30;;;29.60;80.70;;;;;;5052282;28;20309;-55
2022/08/25 10:24:39;;;;;;;3.83;3.38;;;29.60;80.80;;;;;;5051732;28;20221;-55
2022/08/25 10:27:19;;;;;;;4.10;3.58;;;29.70;81.50;;;;;;5051589;28;20233;-55
2022/08/25 10:30:07;;;;;;;5.40;4.90;;;29.80;79.90;;;;;;5052023;28;20312;-55
2022/08/25 10:32:58;;;;;;;5.70;4.00;;;30.00;79.10;;;;;;5051743;28;20256;-54
2022/08/25 10:35:32;;;;;;;5.53;3.15;;;30.20;79.30;;;;;;5052265;28;20613;-54
2022/08/25 10:38:06;;;;;;;7.95;3.63;;;30.30;78.40;;;;;;5052109;28;20259;-54
2022/08/25 10:40:39;;;;;;;4.88;3.28;;;30.50;77.70;;;;;;5052786;28;20221;-56
2022/08/25 10:43:19;;;;;;;4.18;3.20;;;30.60;76.80;;;;;;5051877;28;20206;-54
2022/08/25 10:45:50;;;;;;;7.65;3.67;;;30.40;77.50;;;;;;5052072;28;20283;-54
2022/08/25 10:48:31;;;;;;;3.90;3.50;;;30.20;78.00;;;;;;5051893;28;20205;-54
2022/08/25 10:51:06;;;;;;;3.60;3.30;;;30.10;78.40;;;;;;5051721;28;20271;-56
2022/08/25 10:53:43;;;;;;;4.35;3.70;;;30.00;78.90;;;;;;5051799;28;20213;-58
2022/08/25 10:56:15;;;;;;;4.85;3.55;;;30.10;78.40;;;;;;5043449;28;20356;-56
2022/08/25 10:59:13;;;;;;;3.97;3.42;;;30.10;78.40;;;;;;5037383;28;20586;-61
2022/08/25 11:01:52;;;;;;;4.30;3.50;;;30.30;77.40;;;;;;5050146;28;20669;-58
2022/08/25 11:04:24;;;;;;;3.30;3.00;;;30.50;76.40;;;;;;5050861;28;20228;-62
2022/08/25 11:06:58;;;;;;;3.45;3.00;;;30.70;75.30;;;;;;5050441;28;20678;-61
2022/08/25 11:09:30;;;;;;;3.35;2.90;;;31.10;75.00;;;;;;5050534;28;20492;-62
2022/08/25 11:12:00;;;;;;;4.57;2.65;;;31.20;72.70;;;;;;5050935;28;20205;-60
2022/08/25 11:14:34;;;;;;;5.65;2.95;;;31.00;72.20;;;;;;5050400;28;20210;-60
2022/08/25 11:17:09;;;;;;;3.40;2.78;;;30.90;72.50;;;;;;5049882;28;20305;-58
2022/08/25 11:19:39;;;;;;;3.42;3.08;;;31.10;71.80;;;;;;5043574;28;20295;-60
2022/08/25 11:22:15;;;;;;;5.03;3.33;;;31.50;72.20;;;;;;5021530;28;20285;-59
2022/08/25 11:24:51;;;;;;;3.45;3.15;;;31.80;71.50;;;;;;5029922;28;20689;-63
2022/08/25 11:27:22;;;;;;;4.35;2.85;;;32.00;70.50;;;;;;5031245;28;20739;-60
2022/08/25 11:30:02;;;;;;;4.15;2.60;;;31.90;69.10;;;;;;5030791;28;20325;-58
2022/08/25 11:32:32;;;;;;;2.72;2.53;;;31.80;68.40;;;;;;5030515;28;20400;-65
2022/08/25 11:35:01;;;;;;;4.00;2.97;;;31.80;68.40;;;;;;5030358;28;20297;-59
2022/08/25 11:37:29;;;;;;;3.58;3.05;;;31.80;68.80;;;;;;5031967;28;20708;-57
2022/08/25 11:40:30;;;;;;;4.50;3.30;;;31.70;69.80;;;;;;5034141;28;20233;-57
2022/08/25 11:43:05;;;;;;;4.30;3.80;;;31.60;70.00;;;;;;5033768;28;20252;-57
2022/08/25 11:46:02;;;;;;;4.35;2.80;;;31.60;69.90;;;;;;5033834;28;20668;-56
2022/08/25 11:48:38;;;;;;;2.72;2.40;;;31.60;69.10;;;;;;5034105;28;20217;-56
2022/08/25 11:51:07;;;;;;;4.43;2.78;;;31.60;67.10;;;;;;5032971;28;20222;-58
2022/08/25 11:53:36;;;;;;;3.53;2.95;;;31.80;67.30;;;;;;5033579;28;20674;-58
2022/08/25 11:56:06;;;;;;;3.25;2.85;;;32.00;67.40;;;;;;5033281;28;20198;-59
2022/08/25 11:58:41;;;;;;;5.53;3.35;;;32.10;66.90;;;;;;5033478;28;20678;-59
2022/08/25 12:01:12;;;;;;;2.88;2.65;;;32.10;66.10;;;;;;5033394;28;20217;-60
2022/08/25 12:04:11;;;;;;;5.30;2.55;;;32.30;65.50;;;;;;5033898;28;20225;-62
2022/08/25 12:07:18;;;;;;;5.85;3.38;;;32.30;66.10;;;;;;5033528;28;20210;-59
2022/08/25 12:10:17;;;;;;;4.55;2.75;;;32.50;66.40;;;;;;5033121;28;20233;-59
2022/08/25 12:13:22;;;;;;;3.65;2.97;;;32.70;65.70;;;;;;5033057;28;20256;-60
2022/08/25 12:16:00;;;;;;;2.80;2.47;;;32.40;66.30;;;;;;5033011;28;20666;-60
2022/08/25 12:18:45;;;;;;;2.53;2.33;;;32.50;65.50;;;;;;5033278;28;20210;-60
2022/08/25 12:21:15;;;;;;;3.20;2.63;;;32.70;64.20;;;;;;5033128;28;20745;-61
2022/08/25 12:23:44;;;;;;;3.67;2.83;;;33.00;63.40;;;;;;5033389;28;20232;-60
2022/08/25 12:26:20;;;;;;;6.10;2.65;;;33.20;62.30;;;;;;5032986;28;20272;-60
2022/08/25 12:28:59;;;;;;;7.57;3.22;;;33.50;61.90;;;;;;5033206;28;20214;-60
2022/08/25 12:31:58;;;;;;;7.65;2.50;;;33.80;61.20;;;;;;5032597;28;20206;-60
2022/08/25 12:34:52;;;;;;;3.22;2.67;;;34.10;60.60;;;;;;5033064;28;20686;-59
2022/08/25 12:37:21;;;;;;;3.47;2.72;;;34.40;60.40;;;;;;5033472;28;20210;-60
2022/08/25 12:39:59;;;;;;;4.45;2.60;;;34.70;59.40;;;;;;5032950;28;20669;-59
2022/08/25 12:42:31;;;;;;;3.88;2.47;;;34.70;59.20;;;;;;5033455;28;20218;-60
2022/08/25 12:45:14;;;;;;;2.88;2.53;;;34.70;59.10;;;;;;5033132;28;20767;-59
2022/08/25 12:47:43;;;;;;;2.40;2.20;;;34.70;58.50;;;;;;5033055;28;20210;-61
2022/08/25 12:50:36;;;;;;;3.13;2.20;;;34.60;58.30;;;;;;5031750;28;20729;-58
2022/08/25 12:53:18;;;;;;;4.03;2.70;;;34.50;58.20;;;;;;5032509;28;20212;-60
2022/08/25 12:55:50;;;;;;;4.68;2.42;;;34.50;58.00;;;;;;5032546;28;20205;-61
2022/08/25 12:58:16;;;;;;;2.88;2.50;;;34.60;58.10;;;;;;5032458;28;20259;-60
2022/08/25 13:01:12;;;;;;;2.70;2.50;;;34.70;57.50;;;;;;5032692;28;20229;-62
2022/08/25 13:03:59;;;;;;;2.97;2.65;;;34.80;57.40;;;;;;5030842;28;20214;-61
2022/08/25 13:06:47;;;;;;;2.70;2.50;;;34.70;58.00;;;;;;5032427;28;20226;-62
2022/08/25 13:09:49;;;;;;;3.45;2.63;;;34.60;58.10;;;;;;5032185;28;20325;-61
2022/08/25 13:12:18;;;;;;;2.42;2.22;;;34.60;57.50;;;;;;5032138;28;20214;-62
2022/08/25 13:14:56;;;;;;;2.45;2.25;;;34.80;56.20;;;;;;5032053;28;20210;-62